sensor_id;sensor_type;location;lat;lon;timestamp;temperature;humidity
63537;DHT22;49686;51.880;5.632;2022-10-26T00:00:31;8.40;99.90
63537;DHT22;49686;51.880;5.632;2022-10-26T00:03:00;8.40;99.90
63537;DHT22;49686;51.880;5.632;2022-10-26T00:05:27;8.40;99.90
63537;DHT22;49686;51.880;5.632;2022-10-26T00:07:53;8.40;99.90
63537;DHT22;49686;51.880;5.632;2022-10-26T00:10:21;8.40;99.90
63537;DHT22;49686;51.880;5.632;2022-10-26T00:12:49;8.40;99.90
63537;DHT22;49686;51.880;5.632;2022-10-26T00:15:17;8.50;99.90
63537;DHT22;49686;51.880;5.632;2022-10-26T00:17:45;8.50;99.90
63537;DHT22;49686;51.880;5.632;2022-10-26T00:20:13;8.60;99.90
63537;DHT22;49686;51.880;5.632;2022-10-26T00:22:40;8.60;99.90
63537;DHT22;49686;51.880;5.632;2022-10-26T00:25:08;8.50;99.90
63537;DHT22;49686;51.880;5.632;2022-10-26T00:27:35;8.60;99.90
63537;DHT22;49686;51.880;5.632;2022-10-26T00:30:03;8.60;99.90
63537;DHT22;49686;51.880;5.632;2022-10-26T00:32:31;8.70;99.90
63537;DHT22;49686;51.880;5.632;2022-10-26T00:34:58;8.70;99.90
63537;DHT22;49686;51.880;5.632;2022-10-26T00:37:47;8.60;99.90
63537;DHT22;49686;51.880;5.632;2022-10-26T00:40:14;8.60;99.90
63537;DHT22;49686;51.880;5.632;2022-10-26T00:42:41;8.60;99.90
63537;DHT22;49686;51.880;5.632;2022-10-26T00:45:18;8.60;99.90
63537;DHT22;49686;51.880;5.632;2022-10-26T00:47:46;8.60;99.90
63537;DHT22;49686;51.880;5.632;2022-10-26T00:50:18;8.60;99.90
63537;DHT22;49686;51.880;5.632;2022-10-26T00:52:48;8.60;99.90
63537;DHT22;49686;51.880;5.632;2022-10-26T00:55:18;8.70;99.90
63537;DHT22;49686;51.880;5.632;2022-10-26T00:57:46;8.70;99.90
63537;DHT22;49686;51.880;5.632;2022-10-26T01:00:13;8.70;99.90
63537;DHT22;49686;51.880;5.632;2022-10-26T01:02:42;8.70;99.90
63537;DHT22;49686;51.880;5.632;2022-10-26T01:05:11;8.70;99.90
63537;DHT22;49686;51.880;5.632;2022-10-26T01:07:40;8.70;99.90
63537;DHT22;49686;51.880;5.632;2022-10-26T01:10:10;8.80;99.90
63537;DHT22;49686;51.880;5.632;2022-10-26T01:12:37;8.90;99.90
63537;DHT22;49686;51.880;5.632;2022-10-26T01:15:05;8.90;99.90
63537;DHT22;49686;51.880;5.632;2022-10-26T01:17:46;8.90;99.90
63537;DHT22;49686;51.880;5.632;2022-10-26T01:23:28;8.90;99.90
63537;DHT22;49686;51.880;5.632;2022-10-26T01:32:09;8.80;99.90
63537;DHT22;49686;51.880;5.632;2022-10-26T01:34:43;8.70;99.90
63537;DHT22;49686;51.880;5.632;2022-10-26T01:37:12;8.60;99.90
63537;DHT22;49686;51.880;5.632;2022-10-26T01:39:44;8.70;99.90
63537;DHT22;49686;51.880;5.632;2022-10-26T01:42:15;8.70;99.90
63537;DHT22;49686;51.880;5.632;2022-10-26T01:44:45;8.70;99.90
63537;DHT22;49686;51.880;5.632;2022-10-26T01:47:17;8.70;99.90
63537;DHT22;49686;51.880;5.632;2022-10-26T01:49:49;8.70;99.90
63537;DHT22;49686;51.880;5.632;2022-10-26T01:52:17;8.70;99.90
63537;DHT22;49686;51.880;5.632;2022-10-26T01:54:44;8.80;99.90
63537;DHT22;49686;51.880;5.632;2022-10-26T01:57:14;8.70;99.90
63537;DHT22;49686;51.880;5.632;2022-10-26T01:59:55;8.70;99.90
63537;DHT22;49686;51.880;5.632;2022-10-26T02:05:28;8.70;99.90
63537;DHT22;49686;51.880;5.632;2022-10-26T02:08:06;8.70;99.90
63537;DHT22;49686;51.880;5.632;2022-10-26T02:10:45;8.70;99.90
63537;DHT22;49686;51.880;5.632;2022-10-26T02:13:19;8.70;99.90
63537;DHT22;49686;51.880;5.632;2022-10-26T02:15:52;8.70;99.90
63537;DHT22;49686;51.880;5.632;2022-10-26T02:18:28;8.80;99.90
63537;DHT22;49686;51.880;5.632;2022-10-26T02:21:00;8.80;99.90
63537;DHT22;49686;51.880;5.632;2022-10-26T02:23:32;8.90;99.90
63537;DHT22;49686;51.880;5.632;2022-10-26T02:26:02;8.90;99.90
63537;DHT22;49686;51.880;5.632;2022-10-26T02:28:34;8.80;99.90
63537;DHT22;49686;51.880;5.632;2022-10-26T02:31:04;8.80;99.90
63537;DHT22;49686;51.880;5.632;2022-10-26T02:33:37;8.90;99.90
63537;DHT22;49686;51.880;5.632;2022-10-26T02:36:08;8.90;99.90
63537;DHT22;49686;51.880;5.632;2022-10-26T02:38:38;8.90;99.90
63537;DHT22;49686;51.880;5.632;2022-10-26T02:41:06;8.90;99.90
63537;DHT22;49686;51.880;5.632;2022-10-26T02:43:37;8.90;99.90
63537;DHT22;49686;51.880;5.632;2022-10-26T02:46:10;9.00;99.90
63537;DHT22;49686;51.880;5.632;2022-10-26T02:48:40;8.90;99.90
63537;DHT22;49686;51.880;5.632;2022-10-26T02:51:10;9.00;99.90
63537;DHT22;49686;51.880;5.632;2022-10-26T02:53:42;9.00;99.90
63537;DHT22;49686;51.880;5.632;2022-10-26T02:56:17;9.00;99.90
63537;DHT22;49686;51.880;5.632;2022-10-26T02:58:48;9.10;99.90
63537;DHT22;49686;51.880;5.632;2022-10-26T03:01:17;9.10;99.90
63537;DHT22;49686;51.880;5.632;2022-10-26T03:03:45;9.10;99.90
63537;DHT22;49686;51.880;5.632;2022-10-26T03:06:19;9.20;99.90
63537;DHT22;49686;51.880;5.632;2022-10-26T03:08:47;9.10;99.90
63537;DHT22;49686;51.880;5.632;2022-10-26T03:11:14;9.10;99.90
63537;DHT22;49686;51.880;5.632;2022-10-26T03:13:41;9.10;99.90
63537;DHT22;49686;51.880;5.632;2022-10-26T03:16:08;9.10;99.90
63537;DHT22;49686;51.880;5.632;2022-10-26T03:18:35;9.10;99.90
63537;DHT22;49686;51.880;5.632;2022-10-26T03:21:03;9.10;99.90
63537;DHT22;49686;51.880;5.632;2022-10-26T03:23:31;9.00;99.90
63537;DHT22;49686;51.880;5.632;2022-10-26T03:25:58;9.00;99.90
63537;DHT22;49686;51.880;5.632;2022-10-26T03:28:25;8.90;99.90
63537;DHT22;49686;51.880;5.632;2022-10-26T03:30:52;8.80;99.90
63537;DHT22;49686;51.880;5.632;2022-10-26T03:33:20;8.80;99.90
63537;DHT22;49686;51.880;5.632;2022-10-26T03:35:54;8.60;99.90
63537;DHT22;49686;51.880;5.632;2022-10-26T03:38:22;8.60;99.90
63537;DHT22;49686;51.880;5.632;2022-10-26T03:40:49;8.70;99.90
63537;DHT22;49686;51.880;5.632;2022-10-26T03:43:17;8.60;99.90
63537;DHT22;49686;51.880;5.632;2022-10-26T03:45:43;8.70;99.90
63537;DHT22;49686;51.880;5.632;2022-10-26T03:48:10;8.70;99.90
63537;DHT22;49686;51.880;5.632;2022-10-26T03:50:38;8.70;99.90
63537;DHT22;49686;51.880;5.632;2022-10-26T03:53:05;8.70;99.90
63537;DHT22;49686;51.880;5.632;2022-10-26T03:55:33;8.60;99.90
63537;DHT22;49686;51.880;5.632;2022-10-26T03:58:01;8.60;99.90
63537;DHT22;49686;51.880;5.632;2022-10-26T04:00:27;8.80;99.90
63537;DHT22;49686;51.880;5.632;2022-10-26T04:02:55;8.90;99.90
63537;DHT22;49686;51.880;5.632;2022-10-26T04:05:23;8.90;99.90
63537;DHT22;49686;51.880;5.632;2022-10-26T04:07:53;8.90;99.90
63537;DHT22;49686;51.880;5.632;2022-10-26T04:10:20;9.00;99.90
63537;DHT22;49686;51.880;5.632;2022-10-26T04:12:49;9.00;99.90
63537;DHT22;49686;51.880;5.632;2022-10-26T04:15:18;9.00;99.90
63537;DHT22;49686;51.880;5.632;2022-10-26T04:17:45;9.10;99.90
63537;DHT22;49686;51.880;5.632;2022-10-26T04:20:13;9.10;99.90
63537;DHT22;49686;51.880;5.632;2022-10-26T04:22:40;9.20;99.90
63537;DHT22;49686;51.880;5.632;2022-10-26T04:25:07;9.20;99.90
63537;DHT22;49686;51.880;5.632;2022-10-26T04:27:35;9.20;99.90
63537;DHT22;49686;51.880;5.632;2022-10-26T04:30:04;9.20;99.90
63537;DHT22;49686;51.880;5.632;2022-10-26T04:32:31;9.20;99.90
63537;DHT22;49686;51.880;5.632;2022-10-26T04:34:58;9.20;99.90
63537;DHT22;49686;51.880;5.632;2022-10-26T04:37:25;9.20;99.90
63537;DHT22;49686;51.880;5.632;2022-10-26T04:39:51;9.20;99.90
63537;DHT22;49686;51.880;5.632;2022-10-26T04:42:19;9.20;99.90
63537;DHT22;49686;51.880;5.632;2022-10-26T04:44:46;9.20;99.90
63537;DHT22;49686;51.880;5.632;2022-10-26T04:47:14;9.20;99.90
63537;DHT22;49686;51.880;5.632;2022-10-26T04:49:41;9.20;99.90
63537;DHT22;49686;51.880;5.632;2022-10-26T04:52:08;9.20;99.90
63537;DHT22;49686;51.880;5.632;2022-10-26T04:54:35;9.30;99.90
63537;DHT22;49686;51.880;5.632;2022-10-26T04:57:02;9.30;99.90
63537;DHT22;49686;51.880;5.632;2022-10-26T04:59:29;9.40;99.90
63537;DHT22;49686;51.880;5.632;2022-10-26T05:01:56;9.40;99.90
63537;DHT22;49686;51.880;5.632;2022-10-26T05:04:24;9.40;99.90
63537;DHT22;49686;51.880;5.632;2022-10-26T05:06:51;9.50;99.90
63537;DHT22;49686;51.880;5.632;2022-10-26T05:09:18;9.50;99.90
63537;DHT22;49686;51.880;5.632;2022-10-26T05:11:45;9.50;99.90
63537;DHT22;49686;51.880;5.632;2022-10-26T05:14:12;9.60;99.90
63537;DHT22;49686;51.880;5.632;2022-10-26T05:16:39;9.60;99.90
63537;DHT22;49686;51.880;5.632;2022-10-26T05:19:06;9.50;99.90
63537;DHT22;49686;51.880;5.632;2022-10-26T05:21:34;9.60;99.90
63537;DHT22;49686;51.880;5.632;2022-10-26T05:24:01;9.60;99.90
63537;DHT22;49686;51.880;5.632;2022-10-26T05:26:29;9.70;99.90
63537;DHT22;49686;51.880;5.632;2022-10-26T05:28:55;9.60;99.90
63537;DHT22;49686;51.880;5.632;2022-10-26T05:31:22;9.60;99.90
63537;DHT22;49686;51.880;5.632;2022-10-26T05:33:50;9.60;99.90
63537;DHT22;49686;51.880;5.632;2022-10-26T05:36:17;9.70;99.90
63537;DHT22;49686;51.880;5.632;2022-10-26T05:38:45;9.70;99.90
63537;DHT22;49686;51.880;5.632;2022-10-26T05:41:12;9.70;99.90
63537;DHT22;49686;51.880;5.632;2022-10-26T05:43:39;9.70;99.90
63537;DHT22;49686;51.880;5.632;2022-10-26T05:46:06;9.70;99.90
63537;DHT22;49686;51.880;5.632;2022-10-26T05:48:33;9.70;99.90
63537;DHT22;49686;51.880;5.632;2022-10-26T05:51:00;9.60;99.90
63537;DHT22;49686;51.880;5.632;2022-10-26T05:53:27;9.70;99.90
63537;DHT22;49686;51.880;5.632;2022-10-26T05:55:56;9.70;99.90
63537;DHT22;49686;51.880;5.632;2022-10-26T05:58:24;9.70;99.90
63537;DHT22;49686;51.880;5.632;2022-10-26T06:01:04;9.60;99.90
63537;DHT22;49686;51.880;5.632;2022-10-26T06:03:42;9.60;99.90
63537;DHT22;49686;51.880;5.632;2022-10-26T06:06:11;9.60;99.90
63537;DHT22;49686;51.880;5.632;2022-10-26T06:08:39;9.60;99.90
63537;DHT22;49686;51.880;5.632;2022-10-26T06:11:09;9.50;99.90
63537;DHT22;49686;51.880;5.632;2022-10-26T06:13:36;9.50;99.90
63537;DHT22;49686;51.880;5.632;2022-10-26T06:16:16;9.50;99.90
63537;DHT22;49686;51.880;5.632;2022-10-26T06:18:56;9.60;99.90
63537;DHT22;49686;51.880;5.632;2022-10-26T06:21:39;9.70;99.90
63537;DHT22;49686;51.880;5.632;2022-10-26T06:24:13;9.60;99.90
63537;DHT22;49686;51.880;5.632;2022-10-26T06:26:50;9.50;99.90
63537;DHT22;49686;51.880;5.632;2022-10-26T06:29:33;9.50;99.90
63537;DHT22;49686;51.880;5.632;2022-10-26T06:32:03;9.40;99.90
63537;DHT22;49686;51.880;5.632;2022-10-26T06:34:33;9.40;99.90
63537;DHT22;49686;51.880;5.632;2022-10-26T06:37:01;9.20;99.90
63537;DHT22;49686;51.880;5.632;2022-10-26T06:39:31;9.30;99.90
63537;DHT22;49686;51.880;5.632;2022-10-26T06:42:02;9.20;99.90
63537;DHT22;49686;51.880;5.632;2022-10-26T06:44:30;9.30;99.90
63537;DHT22;49686;51.880;5.632;2022-10-26T06:47:04;9.30;99.90
63537;DHT22;49686;51.880;5.632;2022-10-26T06:49:36;9.30;99.90
63537;DHT22;49686;51.880;5.632;2022-10-26T06:52:09;9.30;99.90
63537;DHT22;49686;51.880;5.632;2022-10-26T06:54:46;9.40;99.90
63537;DHT22;49686;51.880;5.632;2022-10-26T06:57:16;9.30;99.90
63537;DHT22;49686;51.880;5.632;2022-10-26T06:59:47;9.30;99.90
63537;DHT22;49686;51.880;5.632;2022-10-26T07:02:14;9.40;99.90
63537;DHT22;49686;51.880;5.632;2022-10-26T07:04:42;9.40;99.90
63537;DHT22;49686;51.880;5.632;2022-10-26T07:07:11;9.50;99.90
63537;DHT22;49686;51.880;5.632;2022-10-26T07:09:39;9.60;99.90
63537;DHT22;49686;51.880;5.632;2022-10-26T07:12:06;9.80;99.90
63537;DHT22;49686;51.880;5.632;2022-10-26T07:14:35;9.90;99.90
63537;DHT22;49686;51.880;5.632;2022-10-26T07:17:02;10.00;99.90
63537;DHT22;49686;51.880;5.632;2022-10-26T07:19:29;10.20;99.90
63537;DHT22;49686;51.880;5.632;2022-10-26T07:21:57;10.30;99.90
63537;DHT22;49686;51.880;5.632;2022-10-26T07:24:24;10.40;99.90
63537;DHT22;49686;51.880;5.632;2022-10-26T07:26:52;10.50;99.90
63537;DHT22;49686;51.880;5.632;2022-10-26T07:29:20;10.80;99.90
63537;DHT22;49686;51.880;5.632;2022-10-26T07:31:49;11.00;99.90
63537;DHT22;49686;51.880;5.632;2022-10-26T07:34:16;11.20;99.90
63537;DHT22;49686;51.880;5.632;2022-10-26T07:36:43;11.40;99.90
63537;DHT22;49686;51.880;5.632;2022-10-26T07:39:10;11.60;99.90
63537;DHT22;49686;51.880;5.632;2022-10-26T07:41:37;11.80;99.90
63537;DHT22;49686;51.880;5.632;2022-10-26T07:44:04;11.90;99.90
63537;DHT22;49686;51.880;5.632;2022-10-26T07:46:31;11.90;99.90
63537;DHT22;49686;51.880;5.632;2022-10-26T07:48:59;12.00;99.90
63537;DHT22;49686;51.880;5.632;2022-10-26T07:51:27;12.00;99.90
63537;DHT22;49686;51.880;5.632;2022-10-26T07:53:53;12.00;99.90
63537;DHT22;49686;51.880;5.632;2022-10-26T07:56:20;12.00;99.90
63537;DHT22;49686;51.880;5.632;2022-10-26T07:58:47;12.10;99.90
63537;DHT22;49686;51.880;5.632;2022-10-26T08:01:15;12.10;99.90
63537;DHT22;49686;51.880;5.632;2022-10-26T08:03:41;12.10;99.90
63537;DHT22;49686;51.880;5.632;2022-10-26T08:06:11;12.10;99.90
63537;DHT22;49686;51.880;5.632;2022-10-26T08:08:38;12.20;99.90
63537;DHT22;49686;51.880;5.632;2022-10-26T08:11:12;12.30;99.90
63537;DHT22;49686;51.880;5.632;2022-10-26T08:13:39;12.40;99.90
63537;DHT22;49686;51.880;5.632;2022-10-26T08:16:07;12.40;99.90
63537;DHT22;49686;51.880;5.632;2022-10-26T08:18:34;12.60;99.90
63537;DHT22;49686;51.880;5.632;2022-10-26T08:21:02;12.60;99.90
63537;DHT22;49686;51.880;5.632;2022-10-26T08:23:39;12.70;99.90
63537;DHT22;49686;51.880;5.632;2022-10-26T08:26:06;12.80;99.90
63537;DHT22;49686;51.880;5.632;2022-10-26T08:28:33;13.00;99.90
63537;DHT22;49686;51.880;5.632;2022-10-26T08:31:00;13.10;99.90
63537;DHT22;49686;51.880;5.632;2022-10-26T08:33:27;13.20;99.90
63537;DHT22;49686;51.880;5.632;2022-10-26T08:35:55;13.20;99.90
63537;DHT22;49686;51.880;5.632;2022-10-26T08:38:22;13.10;99.90
63537;DHT22;49686;51.880;5.632;2022-10-26T08:40:52;13.30;99.90
63537;DHT22;49686;51.880;5.632;2022-10-26T08:43:22;13.50;99.90
63537;DHT22;49686;51.880;5.632;2022-10-26T08:45:56;13.80;99.90
63537;DHT22;49686;51.880;5.632;2022-10-26T08:48:25;14.10;99.90
63537;DHT22;49686;51.880;5.632;2022-10-26T08:50:55;14.20;99.90
63537;DHT22;49686;51.880;5.632;2022-10-26T08:53:28;14.30;99.90
63537;DHT22;49686;51.880;5.632;2022-10-26T08:56:02;14.30;99.90
63537;DHT22;49686;51.880;5.632;2022-10-26T08:58:36;14.20;99.90
63537;DHT22;49686;51.880;5.632;2022-10-26T09:01:06;14.30;99.90
63537;DHT22;49686;51.880;5.632;2022-10-26T09:03:34;14.20;99.90
63537;DHT22;49686;51.880;5.632;2022-10-26T09:06:14;14.00;99.90
63537;DHT22;49686;51.880;5.632;2022-10-26T09:08:52;14.00;99.90
63537;DHT22;49686;51.880;5.632;2022-10-26T09:11:32;14.00;99.90
63537;DHT22;49686;51.880;5.632;2022-10-26T09:14:10;13.90;99.90
63537;DHT22;49686;51.880;5.632;2022-10-26T09:16:45;14.10;99.90
63537;DHT22;49686;51.880;5.632;2022-10-26T09:20:02;14.40;99.90
63537;DHT22;49686;51.880;5.632;2022-10-26T09:22:37;14.80;99.90
63537;DHT22;49686;51.880;5.632;2022-10-26T09:25:15;15.10;99.90
63537;DHT22;49686;51.880;5.632;2022-10-26T09:27:47;15.20;99.90
63537;DHT22;49686;51.880;5.632;2022-10-26T09:30:18;15.40;99.90
63537;DHT22;49686;51.880;5.632;2022-10-26T09:32:46;15.20;99.90
63537;DHT22;49686;51.880;5.632;2022-10-26T09:35:16;15.60;99.90
63537;DHT22;49686;51.880;5.632;2022-10-26T09:37:48;15.40;99.90
63537;DHT22;49686;51.880;5.632;2022-10-26T09:40:19;15.50;99.90
63537;DHT22;49686;51.880;5.632;2022-10-26T09:42:54;15.90;99.90
63537;DHT22;49686;51.880;5.632;2022-10-26T09:45:26;15.80;99.90
63537;DHT22;49686;51.880;5.632;2022-10-26T09:47:58;15.60;99.90
63537;DHT22;49686;51.880;5.632;2022-10-26T09:50:33;15.90;99.90
63537;DHT22;49686;51.880;5.632;2022-10-26T09:53:01;16.00;99.90
63537;DHT22;49686;51.880;5.632;2022-10-26T09:55:29;16.00;99.90
63537;DHT22;49686;51.880;5.632;2022-10-26T09:58:00;16.10;99.90
63537;DHT22;49686;51.880;5.632;2022-10-26T10:00:30;15.50;99.90
63537;DHT22;49686;51.880;5.632;2022-10-26T10:03:16;15.60;99.90
63537;DHT22;49686;51.880;5.632;2022-10-26T10:05:44;15.40;99.90
63537;DHT22;49686;51.880;5.632;2022-10-26T10:08:20;15.60;99.90
63537;DHT22;49686;51.880;5.632;2022-10-26T10:11:06;15.60;99.90
63537;DHT22;49686;51.880;5.632;2022-10-26T10:13:36;15.80;99.90
63537;DHT22;49686;51.880;5.632;2022-10-26T10:16:07;15.90;99.90
63537;DHT22;49686;51.880;5.632;2022-10-26T10:18:36;15.50;99.90
63537;DHT22;49686;51.880;5.632;2022-10-26T10:21:03;15.80;99.90
63537;DHT22;49686;51.880;5.632;2022-10-26T10:23:33;16.30;99.90
63537;DHT22;49686;51.880;5.632;2022-10-26T10:26:06;15.80;99.90
63537;DHT22;49686;51.880;5.632;2022-10-26T10:28:34;16.20;99.90
63537;DHT22;49686;51.880;5.632;2022-10-26T10:31:03;16.50;99.90
63537;DHT22;49686;51.880;5.632;2022-10-26T10:33:34;16.40;99.90
63537;DHT22;49686;51.880;5.632;2022-10-26T10:36:04;16.10;99.90
63537;DHT22;49686;51.880;5.632;2022-10-26T10:38:37;16.70;99.90
63537;DHT22;49686;51.880;5.632;2022-10-26T10:41:05;16.60;99.90
63537;DHT22;49686;51.880;5.632;2022-10-26T10:43:44;17.00;99.90
63537;DHT22;49686;51.880;5.632;2022-10-26T10:46:17;16.40;99.90
63537;DHT22;49686;51.880;5.632;2022-10-26T10:48:46;16.50;99.90
63537;DHT22;49686;51.880;5.632;2022-10-26T10:51:18;16.40;99.90
63537;DHT22;49686;51.880;5.632;2022-10-26T10:53:47;16.60;99.90
63537;DHT22;49686;51.880;5.632;2022-10-26T10:56:33;16.30;99.90
63537;DHT22;49686;51.880;5.632;2022-10-26T10:59:19;16.40;99.90
63537;DHT22;49686;51.880;5.632;2022-10-26T11:01:59;16.70;99.90
63537;DHT22;49686;51.880;5.632;2022-10-26T11:04:57;16.60;99.90
63537;DHT22;49686;51.880;5.632;2022-10-26T11:07:27;16.70;99.90
63537;DHT22;49686;51.880;5.632;2022-10-26T11:09:56;16.80;99.90
63537;DHT22;49686;51.880;5.632;2022-10-26T11:12:29;17.20;99.90
63537;DHT22;49686;51.880;5.632;2022-10-26T11:15:01;16.80;99.90
63537;DHT22;49686;51.880;5.632;2022-10-26T11:17:31;16.90;99.90
63537;DHT22;49686;51.880;5.632;2022-10-26T11:20:02;17.10;99.90
63537;DHT22;49686;51.880;5.632;2022-10-26T11:22:36;17.40;99.90
63537;DHT22;49686;51.880;5.632;2022-10-26T11:25:10;17.10;99.90
63537;DHT22;49686;51.880;5.632;2022-10-26T11:27:42;17.10;99.90
63537;DHT22;49686;51.880;5.632;2022-10-26T11:30:17;17.30;99.90
63537;DHT22;49686;51.880;5.632;2022-10-26T11:32:48;17.30;99.90
63537;DHT22;49686;51.880;5.632;2022-10-26T11:35:20;17.30;99.90
63537;DHT22;49686;51.880;5.632;2022-10-26T11:37:53;16.40;99.90
63537;DHT22;49686;51.880;5.632;2022-10-26T11:40:26;16.70;99.90
63537;DHT22;49686;51.880;5.632;2022-10-26T11:43:02;16.50;99.90
63537;DHT22;49686;51.880;5.632;2022-10-26T11:45:36;16.60;99.90
63537;DHT22;49686;51.880;5.632;2022-10-26T11:48:12;16.30;99.90
63537;DHT22;49686;51.880;5.632;2022-10-26T11:50:43;16.60;99.90
63537;DHT22;49686;51.880;5.632;2022-10-26T11:53:13;16.70;99.90
63537;DHT22;49686;51.880;5.632;2022-10-26T11:55:41;16.80;99.90
63537;DHT22;49686;51.880;5.632;2022-10-26T11:58:10;16.70;99.90
63537;DHT22;49686;51.880;5.632;2022-10-26T12:00:44;16.70;99.90
63537;DHT22;49686;51.880;5.632;2022-10-26T12:03:17;16.80;99.90
63537;DHT22;49686;51.880;5.632;2022-10-26T12:05:48;16.60;99.90
63537;DHT22;49686;51.880;5.632;2022-10-26T12:08:19;17.20;99.90
63537;DHT22;49686;51.880;5.632;2022-10-26T12:10:51;17.20;99.90
63537;DHT22;49686;51.880;5.632;2022-10-26T12:13:25;16.80;99.90
63537;DHT22;49686;51.880;5.632;2022-10-26T12:15:59;16.90;99.90
63537;DHT22;49686;51.880;5.632;2022-10-26T12:18:36;17.30;99.90
63537;DHT22;49686;51.880;5.632;2022-10-26T12:21:25;17.00;99.90
63537;DHT22;49686;51.880;5.632;2022-10-26T12:23:54;17.20;99.90
63537;DHT22;49686;51.880;5.632;2022-10-26T12:26:53;17.00;99.90
63537;DHT22;49686;51.880;5.632;2022-10-26T12:29:37;17.30;99.90
63537;DHT22;49686;51.880;5.632;2022-10-26T12:35:37;17.60;99.90
63537;DHT22;49686;51.880;5.632;2022-10-26T12:40:47;17.50;99.90
63537;DHT22;49686;51.880;5.632;2022-10-26T12:43:35;17.40;99.90
63537;DHT22;49686;51.880;5.632;2022-10-26T12:52:40;17.40;99.90
63537;DHT22;49686;51.880;5.632;2022-10-26T12:55:41;17.30;99.90
63537;DHT22;49686;51.880;5.632;2022-10-26T12:58:36;17.50;99.90
63537;DHT22;49686;51.880;5.632;2022-10-26T13:04:21;17.60;99.90
63537;DHT22;49686;51.880;5.632;2022-10-26T13:07:09;18.40;99.90
63537;DHT22;49686;51.880;5.632;2022-10-26T13:09:44;18.20;99.90
63537;DHT22;49686;51.880;5.632;2022-10-26T13:12:12;17.90;99.90
63537;DHT22;49686;51.880;5.632;2022-10-26T13:14:47;17.60;99.90
63537;DHT22;49686;51.880;5.632;2022-10-26T13:17:23;17.50;99.90
63537;DHT22;49686;51.880;5.632;2022-10-26T13:19:54;17.80;99.90
63537;DHT22;49686;51.880;5.632;2022-10-26T13:22:23;17.90;99.90
63537;DHT22;49686;51.880;5.632;2022-10-26T13:24:53;17.80;99.90
63537;DHT22;49686;51.880;5.632;2022-10-26T13:27:41;17.80;99.90
63537;DHT22;49686;51.880;5.632;2022-10-26T13:30:21;17.60;99.90
63537;DHT22;49686;51.880;5.632;2022-10-26T13:33:01;18.00;99.90
63537;DHT22;49686;51.880;5.632;2022-10-26T13:35:29;17.90;99.90
63537;DHT22;49686;51.880;5.632;2022-10-26T13:37:59;18.00;99.90
63537;DHT22;49686;51.880;5.632;2022-10-26T13:40:35;18.10;99.90
63537;DHT22;49686;51.880;5.632;2022-10-26T13:43:05;18.10;99.90
63537;DHT22;49686;51.880;5.632;2022-10-26T13:45:36;17.90;99.90
63537;DHT22;49686;51.880;5.632;2022-10-26T13:48:10;17.90;99.90
63537;DHT22;49686;51.880;5.632;2022-10-26T13:50:47;17.80;99.90
63537;DHT22;49686;51.880;5.632;2022-10-26T13:53:18;17.70;99.90
63537;DHT22;49686;51.880;5.632;2022-10-26T13:55:50;17.50;99.90
63537;DHT22;49686;51.880;5.632;2022-10-26T13:58:22;17.80;99.90
63537;DHT22;49686;51.880;5.632;2022-10-26T14:01:12;17.60;99.90
63537;DHT22;49686;51.880;5.632;2022-10-26T14:03:40;17.60;99.90
63537;DHT22;49686;51.880;5.632;2022-10-26T14:06:10;17.70;99.90
63537;DHT22;49686;51.880;5.632;2022-10-26T14:08:40;17.60;99.90
63537;DHT22;49686;51.880;5.632;2022-10-26T14:11:12;17.50;99.90
63537;DHT22;49686;51.880;5.632;2022-10-26T14:13:39;17.30;99.90
63537;DHT22;49686;51.880;5.632;2022-10-26T14:16:09;17.20;99.90
63537;DHT22;49686;51.880;5.632;2022-10-26T14:18:41;17.20;99.90
63537;DHT22;49686;51.880;5.632;2022-10-26T14:21:13;17.30;99.90
63537;DHT22;49686;51.880;5.632;2022-10-26T14:23:46;17.10;99.90
63537;DHT22;49686;51.880;5.632;2022-10-26T14:26:20;17.00;99.90
63537;DHT22;49686;51.880;5.632;2022-10-26T14:28:50;17.10;99.90
63537;DHT22;49686;51.880;5.632;2022-10-26T14:31:23;17.10;99.90
63537;DHT22;49686;51.880;5.632;2022-10-26T14:33:51;17.20;99.90
63537;DHT22;49686;51.880;5.632;2022-10-26T14:36:21;17.10;99.90
63537;DHT22;49686;51.880;5.632;2022-10-26T14:38:51;17.00;99.90
63537;DHT22;49686;51.880;5.632;2022-10-26T14:41:21;17.00;99.90
63537;DHT22;49686;51.880;5.632;2022-10-26T14:43:48;17.00;99.90
63537;DHT22;49686;51.880;5.632;2022-10-26T14:46:17;17.10;99.90
63537;DHT22;49686;51.880;5.632;2022-10-26T14:48:53;17.10;99.90
63537;DHT22;49686;51.880;5.632;2022-10-26T14:51:24;17.00;99.90
63537;DHT22;49686;51.880;5.632;2022-10-26T14:53:53;17.10;99.90
63537;DHT22;49686;51.880;5.632;2022-10-26T14:56:27;17.00;99.90
63537;DHT22;49686;51.880;5.632;2022-10-26T14:58:57;16.90;99.90
63537;DHT22;49686;51.880;5.632;2022-10-26T15:01:26;16.90;99.90
63537;DHT22;49686;51.880;5.632;2022-10-26T15:04:01;16.90;99.90
63537;DHT22;49686;51.880;5.632;2022-10-26T15:06:41;16.80;99.90
63537;DHT22;49686;51.880;5.632;2022-10-26T15:09:36;16.90;99.90
63537;DHT22;49686;51.880;5.632;2022-10-26T15:12:05;16.80;99.90
63537;DHT22;49686;51.880;5.632;2022-10-26T15:14:33;16.80;99.90
63537;DHT22;49686;51.880;5.632;2022-10-26T15:17:00;16.70;99.90
63537;DHT22;49686;51.880;5.632;2022-10-26T15:19:27;16.70;99.90
63537;DHT22;49686;51.880;5.632;2022-10-26T15:21:55;16.60;99.90
63537;DHT22;49686;51.880;5.632;2022-10-26T15:24:28;16.50;99.90
63537;DHT22;49686;51.880;5.632;2022-10-26T15:27:03;16.50;99.90
63537;DHT22;49686;51.880;5.632;2022-10-26T15:29:39;16.50;99.90
63537;DHT22;49686;51.880;5.632;2022-10-26T15:32:19;16.60;99.90
63537;DHT22;49686;51.880;5.632;2022-10-26T15:35:04;16.50;99.90
63537;DHT22;49686;51.880;5.632;2022-10-26T15:37:31;16.40;99.90
63537;DHT22;49686;51.880;5.632;2022-10-26T15:39:58;16.40;99.90
63537;DHT22;49686;51.880;5.632;2022-10-26T15:42:26;16.40;99.90
63537;DHT22;49686;51.880;5.632;2022-10-26T15:44:55;16.30;99.90
63537;DHT22;49686;51.880;5.632;2022-10-26T15:47:27;16.10;99.90
63537;DHT22;49686;51.880;5.632;2022-10-26T15:49:55;16.10;99.90
63537;DHT22;49686;51.880;5.632;2022-10-26T15:52:22;16.00;99.90
63537;DHT22;49686;51.880;5.632;2022-10-26T15:54:49;15.80;99.90
63537;DHT22;49686;51.880;5.632;2022-10-26T15:57:16;15.80;99.90
63537;DHT22;49686;51.880;5.632;2022-10-26T15:59:47;15.70;99.90
63537;DHT22;49686;51.880;5.632;2022-10-26T16:02:15;15.60;99.90
63537;DHT22;49686;51.880;5.632;2022-10-26T16:04:43;15.40;99.90
63537;DHT22;49686;51.880;5.632;2022-10-26T16:07:11;15.40;99.90
63537;DHT22;49686;51.880;5.632;2022-10-26T16:09:39;15.20;99.90
63537;DHT22;49686;51.880;5.632;2022-10-26T16:12:09;15.00;99.90
63537;DHT22;49686;51.880;5.632;2022-10-26T16:14:36;15.00;99.90
63537;DHT22;49686;51.880;5.632;2022-10-26T16:17:25;14.80;99.90
63537;DHT22;49686;51.880;5.632;2022-10-26T16:19:51;14.80;99.90
63537;DHT22;49686;51.880;5.632;2022-10-26T16:22:18;14.90;99.90
63537;DHT22;49686;51.880;5.632;2022-10-26T16:24:45;14.90;99.90
63537;DHT22;49686;51.880;5.632;2022-10-26T16:27:12;14.90;99.90
63537;DHT22;49686;51.880;5.632;2022-10-26T16:29:39;14.90;99.90